sensor_id;sensor_type;location;lat;lon;timestamp;P1;durP1;ratioP1;P2;durP2;ratioP2
12437;SDS011;6283;51.330;12.374;2023-04-22T00:00:13;8.00;;;7.30;;
12437;SDS011;6283;51.330;12.374;2023-04-22T00:02:39;11.40;;;7.77;;
12437;SDS011;6283;51.330;12.374;2023-04-22T00:05:05;9.97;;;6.87;;
12437;SDS011;6283;51.330;12.374;2023-04-22T00:07:32;9.47;;;8.00;;
12437;SDS011;6283;51.330;12.374;2023-04-22T00:09:57;12.40;;;7.23;;
12437;SDS011;6283;51.330;12.374;2023-04-22T00:12:23;8.37;;;6.73;;
12437;SDS011;6283;51.330;12.374;2023-04-22T00:14:49;10.70;;;7.87;;
12437;SDS011;6283;51.330;12.374;2023-04-22T00:17:15;8.47;;;7.43;;
12437;SDS011;6283;51.330;12.374;2023-04-22T00:19:40;8.43;;;6.90;;
12437;SDS011;6283;51.330;12.374;2023-04-22T00:22:06;8.57;;;7.30;;
12437;SDS011;6283;51.330;12.374;2023-04-22T00:24:32;8.20;;;7.03;;
12437;SDS011;6283;51.330;12.374;2023-04-22T00:26:57;8.73;;;7.23;;
12437;SDS011;6283;51.330;12.374;2023-04-22T00:29:24;10.07;;;7.20;;
12437;SDS011;6283;51.330;12.374;2023-04-22T00:31:49;7.23;;;6.53;;
12437;SDS011;6283;51.330;12.374;2023-04-22T00:34:15;10.10;;;6.90;;
12437;SDS011;6283;51.330;12.374;2023-04-22T00:36:44;8.33;;;6.50;;
12437;SDS011;6283;51.330;12.374;2023-04-22T00:39:10;10.83;;;6.63;;
12437;SDS011;6283;51.330;12.374;2023-04-22T00:41:37;7.33;;;6.60;;
12437;SDS011;6283;51.330;12.374;2023-04-22T00:44:04;7.43;;;6.50;;
12437;SDS011;6283;51.330;12.374;2023-04-22T00:46:31;6.67;;;5.60;;
12437;SDS011;6283;51.330;12.374;2023-04-22T00:48:58;7.07;;;6.37;;
12437;SDS011;6283;51.330;12.374;2023-04-22T00:51:25;8.60;;;6.40;;
12437;SDS011;6283;51.330;12.374;2023-04-22T00:53:51;8.20;;;5.70;;
12437;SDS011;6283;51.330;12.374;2023-04-22T00:56:17;7.93;;;5.83;;
12437;SDS011;6283;51.330;12.374;2023-04-22T00:58:44;7.80;;;5.93;;
12437;SDS011;6283;51.330;12.374;2023-04-22T01:01:10;11.27;;;6.10;;
12437;SDS011;6283;51.330;12.374;2023-04-22T01:03:37;6.63;;;5.57;;
12437;SDS011;6283;51.330;12.374;2023-04-22T01:06:04;8.03;;;6.23;;
12437;SDS011;6283;51.330;12.374;2023-04-22T01:08:30;9.40;;;6.50;;
12437;SDS011;6283;51.330;12.374;2023-04-22T01:10:56;9.27;;;6.27;;
12437;SDS011;6283;51.330;12.374;2023-04-22T01:13:22;11.20;;;6.20;;
12437;SDS011;6283;51.330;12.374;2023-04-22T01:15:48;7.53;;;5.80;;
12437;SDS011;6283;51.330;12.374;2023-04-22T01:18:14;8.33;;;5.93;;
12437;SDS011;6283;51.330;12.374;2023-04-22T01:20:41;7.90;;;6.07;;
12437;SDS011;6283;51.330;12.374;2023-04-22T01:23:11;6.03;;;5.33;;
12437;SDS011;6283;51.330;12.374;2023-04-22T01:25:45;7.80;;;5.83;;
12437;SDS011;6283;51.330;12.374;2023-04-22T01:28:11;7.27;;;5.33;;
12437;SDS011;6283;51.330;12.374;2023-04-22T01:30:37;9.60;;;5.60;;
12437;SDS011;6283;51.330;12.374;2023-04-22T01:33:04;10.50;;;5.27;;
12437;SDS011;6283;51.330;12.374;2023-04-22T01:35:30;7.60;;;5.40;;
12437;SDS011;6283;51.330;12.374;2023-04-22T01:38:01;10.20;;;5.67;;
12437;SDS011;6283;51.330;12.374;2023-04-22T01:40:28;9.73;;;5.63;;
12437;SDS011;6283;51.330;12.374;2023-04-22T01:42:56;12.33;;;6.03;;
12437;SDS011;6283;51.330;12.374;2023-04-22T01:45:23;6.53;;;5.57;;
12437;SDS011;6283;51.330;12.374;2023-04-22T01:47:49;8.53;;;6.13;;
12437;SDS011;6283;51.330;12.374;2023-04-22T01:50:15;7.30;;;5.97;;
12437;SDS011;6283;51.330;12.374;2023-04-22T01:52:40;6.93;;;5.83;;
12437;SDS011;6283;51.330;12.374;2023-04-22T01:55:06;7.47;;;6.00;;
12437;SDS011;6283;51.330;12.374;2023-04-22T01:57:32;8.00;;;5.90;;
12437;SDS011;6283;51.330;12.374;2023-04-22T01:59:58;8.93;;;6.20;;
12437;SDS011;6283;51.330;12.374;2023-04-22T02:02:24;7.50;;;6.40;;
12437;SDS011;6283;51.330;12.374;2023-04-22T02:04:50;6.17;;;5.57;;
12437;SDS011;6283;51.330;12.374;2023-04-22T02:07:15;8.50;;;6.03;;
12437;SDS011;6283;51.330;12.374;2023-04-22T02:09:41;6.97;;;6.00;;
12437;SDS011;6283;51.330;12.374;2023-04-22T02:12:07;7.07;;;6.37;;
12437;SDS011;6283;51.330;12.374;2023-04-22T02:14:33;7.90;;;6.03;;
12437;SDS011;6283;51.330;12.374;2023-04-22T02:16:58;8.17;;;6.43;;
12437;SDS011;6283;51.330;12.374;2023-04-22T02:19:26;10.13;;;6.47;;
12437;SDS011;6283;51.330;12.374;2023-04-22T02:21:52;7.13;;;6.00;;
12437;SDS011;6283;51.330;12.374;2023-04-22T02:24:18;7.50;;;6.37;;
12437;SDS011;6283;51.330;12.374;2023-04-22T02:26:43;8.30;;;6.40;;
12437;SDS011;6283;51.330;12.374;2023-04-22T02:29:10;7.87;;;6.50;;
12437;SDS011;6283;51.330;12.374;2023-04-22T02:31:35;12.03;;;6.93;;
12437;SDS011;6283;51.330;12.374;2023-04-22T02:34:01;10.90;;;6.60;;
12437;SDS011;6283;51.330;12.374;2023-04-22T02:36:27;9.20;;;6.53;;
12437;SDS011;6283;51.330;12.374;2023-04-22T02:38:53;8.63;;;6.20;;
12437;SDS011;6283;51.330;12.374;2023-04-22T02:41:18;6.67;;;6.00;;
12437;SDS011;6283;51.330;12.374;2023-04-22T02:43:44;10.30;;;7.03;;
12437;SDS011;6283;51.330;12.374;2023-04-22T02:46:13;8.13;;;6.70;;
12437;SDS011;6283;51.330;12.374;2023-04-22T02:48:42;7.87;;;6.90;;
12437;SDS011;6283;51.330;12.374;2023-04-22T02:51:08;8.63;;;6.13;;
12437;SDS011;6283;51.330;12.374;2023-04-22T02:53:34;8.40;;;7.20;;
12437;SDS011;6283;51.330;12.374;2023-04-22T02:56:00;8.13;;;7.23;;
12437;SDS011;6283;51.330;12.374;2023-04-22T02:58:26;7.47;;;6.60;;
12437;SDS011;6283;51.330;12.374;2023-04-22T03:00:52;8.03;;;6.77;;
12437;SDS011;6283;51.330;12.374;2023-04-22T03:03:18;7.80;;;7.00;;
12437;SDS011;6283;51.330;12.374;2023-04-22T03:05:44;9.17;;;7.20;;
12437;SDS011;6283;51.330;12.374;2023-04-22T03:08:09;8.57;;;6.73;;
12437;SDS011;6283;51.330;12.374;2023-04-22T03:10:35;7.63;;;6.23;;
12437;SDS011;6283;51.330;12.374;2023-04-22T03:13:01;9.43;;;6.63;;
12437;SDS011;6283;51.330;12.374;2023-04-22T03:15:26;8.00;;;6.77;;
12437;SDS011;6283;51.330;12.374;2023-04-22T03:17:52;11.87;;;7.93;;
12437;SDS011;6283;51.330;12.374;2023-04-22T03:20:18;10.60;;;6.93;;
12437;SDS011;6283;51.330;12.374;2023-04-22T03:22:44;10.63;;;7.20;;
12437;SDS011;6283;51.330;12.374;2023-04-22T03:25:10;9.53;;;6.80;;
12437;SDS011;6283;51.330;12.374;2023-04-22T03:27:36;7.77;;;6.97;;
12437;SDS011;6283;51.330;12.374;2023-04-22T03:30:02;8.23;;;7.13;;
12437;SDS011;6283;51.330;12.374;2023-04-22T03:32:29;9.90;;;6.90;;
12437;SDS011;6283;51.330;12.374;2023-04-22T03:34:54;8.27;;;7.03;;
12437;SDS011;6283;51.330;12.374;2023-04-22T03:37:20;8.20;;;7.00;;
12437;SDS011;6283;51.330;12.374;2023-04-22T03:39:46;7.93;;;6.80;;
12437;SDS011;6283;51.330;12.374;2023-04-22T03:42:12;8.77;;;7.07;;
12437;SDS011;6283;51.330;12.374;2023-04-22T03:44:38;8.47;;;7.20;;
12437;SDS011;6283;51.330;12.374;2023-04-22T03:47:04;9.47;;;6.80;;
12437;SDS011;6283;51.330;12.374;2023-04-22T03:49:30;8.70;;;6.77;;
12437;SDS011;6283;51.330;12.374;2023-04-22T03:51:55;9.50;;;7.37;;
12437;SDS011;6283;51.330;12.374;2023-04-22T03:54:21;8.67;;;7.20;;
12437;SDS011;6283;51.330;12.374;2023-04-22T03:56:47;10.27;;;7.80;;
12437;SDS011;6283;51.330;12.374;2023-04-22T03:59:13;10.93;;;7.10;;
12437;SDS011;6283;51.330;12.374;2023-04-22T04:01:38;9.03;;;7.63;;
12437;SDS011;6283;51.330;12.374;2023-04-22T04:04:04;8.53;;;7.07;;
12437;SDS011;6283;51.330;12.374;2023-04-22T04:06:30;10.33;;;7.83;;
12437;SDS011;6283;51.330;12.374;2023-04-22T04:08:56;11.03;;;7.27;;
12437;SDS011;6283;51.330;12.374;2023-04-22T04:11:22;8.07;;;6.70;;
12437;SDS011;6283;51.330;12.374;2023-04-22T04:13:47;10.63;;;7.70;;
12437;SDS011;6283;51.330;12.374;2023-04-22T04:16:13;7.80;;;7.00;;
12437;SDS011;6283;51.330;12.374;2023-04-22T04:18:40;9.93;;;7.40;;
12437;SDS011;6283;51.330;12.374;2023-04-22T04:21:05;8.43;;;7.40;;
12437;SDS011;6283;51.330;12.374;2023-04-22T04:23:31;10.67;;;6.70;;
12437;SDS011;6283;51.330;12.374;2023-04-22T04:25:57;11.23;;;8.20;;
12437;SDS011;6283;51.330;12.374;2023-04-22T04:28:25;7.70;;;7.00;;
12437;SDS011;6283;51.330;12.374;2023-04-22T04:30:51;9.57;;;6.63;;
12437;SDS011;6283;51.330;12.374;2023-04-22T04:33:17;8.63;;;6.63;;
12437;SDS011;6283;51.330;12.374;2023-04-22T04:35:43;10.37;;;7.00;;
12437;SDS011;6283;51.330;12.374;2023-04-22T04:38:09;8.13;;;6.43;;
12437;SDS011;6283;51.330;12.374;2023-04-22T04:40:36;8.30;;;6.80;;
12437;SDS011;6283;51.330;12.374;2023-04-22T04:43:02;8.00;;;6.73;;
12437;SDS011;6283;51.330;12.374;2023-04-22T04:45:32;8.57;;;7.07;;
12437;SDS011;6283;51.330;12.374;2023-04-22T04:47:58;12.37;;;7.50;;
12437;SDS011;6283;51.330;12.374;2023-04-22T04:50:26;9.23;;;6.77;;
12437;SDS011;6283;51.330;12.374;2023-04-22T04:52:52;11.03;;;7.83;;
12437;SDS011;6283;51.330;12.374;2023-04-22T04:55:18;9.87;;;6.67;;
12437;SDS011;6283;51.330;12.374;2023-04-22T04:57:44;11.60;;;7.20;;
12437;SDS011;6283;51.330;12.374;2023-04-22T05:00:10;8.27;;;6.87;;
12437;SDS011;6283;51.330;12.374;2023-04-22T05:02:38;9.40;;;7.17;;
12437;SDS011;6283;51.330;12.374;2023-04-22T05:05:04;10.00;;;7.03;;
12437;SDS011;6283;51.330;12.374;2023-04-22T05:07:30;9.60;;;7.17;;
12437;SDS011;6283;51.330;12.374;2023-04-22T05:09:56;7.67;;;6.87;;
12437;SDS011;6283;51.330;12.374;2023-04-22T05:12:22;8.37;;;6.77;;
12437;SDS011;6283;51.330;12.374;2023-04-22T05:14:48;9.07;;;6.53;;
12437;SDS011;6283;51.330;12.374;2023-04-22T05:17:13;9.60;;;7.13;;
12437;SDS011;6283;51.330;12.374;2023-04-22T05:19:39;7.87;;;6.77;;
12437;SDS011;6283;51.330;12.374;2023-04-22T05:22:05;10.63;;;6.93;;
12437;SDS011;6283;51.330;12.374;2023-04-22T05:24:31;8.93;;;7.50;;
12437;SDS011;6283;51.330;12.374;2023-04-22T05:26:57;9.63;;;6.87;;
12437;SDS011;6283;51.330;12.374;2023-04-22T05:29:23;10.87;;;7.23;;
12437;SDS011;6283;51.330;12.374;2023-04-22T05:31:48;11.83;;;7.10;;
12437;SDS011;6283;51.330;12.374;2023-04-22T05:34:14;10.00;;;7.20;;
12437;SDS011;6283;51.330;12.374;2023-04-22T05:36:40;11.70;;;6.90;;
12437;SDS011;6283;51.330;12.374;2023-04-22T05:39:06;7.80;;;6.60;;
12437;SDS011;6283;51.330;12.374;2023-04-22T05:41:31;8.83;;;7.10;;
12437;SDS011;6283;51.330;12.374;2023-04-22T05:43:57;8.63;;;6.03;;
12437;SDS011;6283;51.330;12.374;2023-04-22T05:46:22;8.27;;;6.43;;
12437;SDS011;6283;51.330;12.374;2023-04-22T05:48:48;6.30;;;5.70;;
12437;SDS011;6283;51.330;12.374;2023-04-22T05:51:14;7.60;;;6.80;;
12437;SDS011;6283;51.330;12.374;2023-04-22T05:53:39;8.67;;;6.70;;
12437;SDS011;6283;51.330;12.374;2023-04-22T05:56:05;8.50;;;6.33;;
12437;SDS011;6283;51.330;12.374;2023-04-22T05:58:31;8.93;;;6.50;;
12437;SDS011;6283;51.330;12.374;2023-04-22T06:00:56;7.60;;;6.87;;
12437;SDS011;6283;51.330;12.374;2023-04-22T06:03:22;6.83;;;6.10;;
12437;SDS011;6283;51.330;12.374;2023-04-22T06:05:47;7.13;;;6.43;;
12437;SDS011;6283;51.330;12.374;2023-04-22T06:08:13;8.37;;;6.50;;
12437;SDS011;6283;51.330;12.374;2023-04-22T06:10:38;8.73;;;6.20;;
12437;SDS011;6283;51.330;12.374;2023-04-22T06:13:04;8.40;;;6.37;;
12437;SDS011;6283;51.330;12.374;2023-04-22T06:15:30;8.87;;;6.20;;
12437;SDS011;6283;51.330;12.374;2023-04-22T06:17:57;8.03;;;6.17;;
12437;SDS011;6283;51.330;12.374;2023-04-22T06:20:23;6.80;;;6.10;;
12437;SDS011;6283;51.330;12.374;2023-04-22T06:22:48;9.13;;;6.40;;
12437;SDS011;6283;51.330;12.374;2023-04-22T06:25:14;9.20;;;6.10;;
12437;SDS011;6283;51.330;12.374;2023-04-22T06:27:40;11.43;;;6.60;;
12437;SDS011;6283;51.330;12.374;2023-04-22T06:30:06;6.73;;;6.03;;
12437;SDS011;6283;51.330;12.374;2023-04-22T06:32:33;9.53;;;6.23;;
12437;SDS011;6283;51.330;12.374;2023-04-22T06:34:58;7.03;;;6.10;;
12437;SDS011;6283;51.330;12.374;2023-04-22T06:37:24;9.33;;;5.93;;
12437;SDS011;6283;51.330;12.374;2023-04-22T06:39:51;6.57;;;5.73;;
12437;SDS011;6283;51.330;12.374;2023-04-22T06:42:16;8.30;;;5.80;;
12437;SDS011;6283;51.330;12.374;2023-04-22T06:44:42;6.00;;;5.40;;
12437;SDS011;6283;51.330;12.374;2023-04-22T06:47:07;7.80;;;5.50;;
12437;SDS011;6283;51.330;12.374;2023-04-22T06:49:33;8.73;;;5.67;;
12437;SDS011;6283;51.330;12.374;2023-04-22T06:52:02;9.43;;;5.43;;
12437;SDS011;6283;51.330;12.374;2023-04-22T06:54:28;6.47;;;5.20;;
12437;SDS011;6283;51.330;12.374;2023-04-22T06:56:54;8.13;;;5.55;;
12437;SDS011;6283;51.330;12.374;2023-04-22T06:59:19;6.13;;;5.45;;
12437;SDS011;6283;51.330;12.374;2023-04-22T07:01:45;5.33;;;4.77;;
12437;SDS011;6283;51.330;12.374;2023-04-22T07:04:10;8.90;;;6.15;;
12437;SDS011;6283;51.330;12.374;2023-04-22T07:06:36;7.20;;;4.68;;
12437;SDS011;6283;51.330;12.374;2023-04-22T07:09:02;6.93;;;4.80;;
12437;SDS011;6283;51.330;12.374;2023-04-22T07:11:27;5.35;;;4.80;;
12437;SDS011;6283;51.330;12.374;2023-04-22T07:13:55;6.38;;;4.30;;
12437;SDS011;6283;51.330;12.374;2023-04-22T07:16:21;9.63;;;5.00;;
12437;SDS011;6283;51.330;12.374;2023-04-22T07:18:47;5.97;;;4.70;;
12437;SDS011;6283;51.330;12.374;2023-04-22T07:21:12;6.93;;;4.68;;
12437;SDS011;6283;51.330;12.374;2023-04-22T07:23:38;8.50;;;4.45;;
12437;SDS011;6283;51.330;12.374;2023-04-22T07:26:04;5.50;;;3.90;;
12437;SDS011;6283;51.330;12.374;2023-04-22T07:28:29;6.63;;;4.40;;
12437;SDS011;6283;51.330;12.374;2023-04-22T07:30:55;10.63;;;5.63;;
12437;SDS011;6283;51.330;12.374;2023-04-22T07:33:21;6.53;;;4.57;;
12437;SDS011;6283;51.330;12.374;2023-04-22T07:35:47;5.00;;;4.50;;
12437;SDS011;6283;51.330;12.374;2023-04-22T07:38:12;6.00;;;4.00;;
12437;SDS011;6283;51.330;12.374;2023-04-22T07:40:39;5.35;;;4.05;;
12437;SDS011;6283;51.330;12.374;2023-04-22T07:43:04;6.35;;;4.00;;
12437;SDS011;6283;51.330;12.374;2023-04-22T07:45:30;6.40;;;4.43;;
12437;SDS011;6283;51.330;12.374;2023-04-22T07:47:57;6.72;;;4.10;;
12437;SDS011;6283;51.330;12.374;2023-04-22T07:50:23;6.82;;;4.35;;
12437;SDS011;6283;51.330;12.374;2023-04-22T07:52:48;8.32;;;4.05;;
12437;SDS011;6283;51.330;12.374;2023-04-22T07:55:14;5.28;;;3.72;;
12437;SDS011;6283;51.330;12.374;2023-04-22T07:57:40;7.80;;;4.25;;
12437;SDS011;6283;51.330;12.374;2023-04-22T08:00:06;11.77;;;4.05;;
12437;SDS011;6283;51.330;12.374;2023-04-22T08:02:32;6.03;;;4.00;;
12437;SDS011;6283;51.330;12.374;2023-04-22T08:04:58;5.00;;;3.78;;
12437;SDS011;6283;51.330;12.374;2023-04-22T08:07:24;5.30;;;3.95;;
12437;SDS011;6283;51.330;12.374;2023-04-22T08:09:50;6.35;;;3.92;;
12437;SDS011;6283;51.330;12.374;2023-04-22T08:12:16;7.32;;;4.53;;
12437;SDS011;6283;51.330;12.374;2023-04-22T08:14:42;5.70;;;4.10;;
12437;SDS011;6283;51.330;12.374;2023-04-22T08:17:08;5.47;;;3.67;;
12437;SDS011;6283;51.330;12.374;2023-04-22T08:19:33;6.18;;;4.30;;
12437;SDS011;6283;51.330;12.374;2023-04-22T08:21:59;6.60;;;3.75;;
12437;SDS011;6283;51.330;12.374;2023-04-22T08:24:25;7.60;;;3.85;;
12437;SDS011;6283;51.330;12.374;2023-04-22T08:26:51;5.22;;;4.00;;
12437;SDS011;6283;51.330;12.374;2023-04-22T08:29:16;5.57;;;4.47;;
12437;SDS011;6283;51.330;12.374;2023-04-22T08:31:42;8.00;;;4.32;;
12437;SDS011;6283;51.330;12.374;2023-04-22T08:34:08;6.55;;;4.07;;
12437;SDS011;6283;51.330;12.374;2023-04-22T08:36:33;4.22;;;3.50;;
12437;SDS011;6283;51.330;12.374;2023-04-22T08:38:59;3.55;;;3.25;;
12437;SDS011;6283;51.330;12.374;2023-04-22T08:41:25;5.20;;;3.53;;
12437;SDS011;6283;51.330;12.374;2023-04-22T08:43:53;7.05;;;3.58;;
12437;SDS011;6283;51.330;12.374;2023-04-22T08:46:20;3.95;;;3.58;;
12437;SDS011;6283;51.330;12.374;2023-04-22T08:48:48;6.20;;;3.30;;
12437;SDS011;6283;51.330;12.374;2023-04-22T08:51:15;3.50;;;3.20;;
12437;SDS011;6283;51.330;12.374;2023-04-22T08:53:44;4.32;;;3.50;;
12437;SDS011;6283;51.330;12.374;2023-04-22T08:56:13;5.63;;;3.75;;
12437;SDS011;6283;51.330;12.374;2023-04-22T08:58:39;5.75;;;3.50;;
12437;SDS011;6283;51.330;12.374;2023-04-22T09:01:06;7.45;;;3.40;;
12437;SDS011;6283;51.330;12.374;2023-04-22T09:03:33;4.15;;;3.40;;
12437;SDS011;6283;51.330;12.374;2023-04-22T09:06:00;5.40;;;3.75;;
12437;SDS011;6283;51.330;12.374;2023-04-22T09:08:31;4.30;;;3.65;;
12437;SDS011;6283;51.330;12.374;2023-04-22T09:10:57;8.52;;;3.85;;
12437;SDS011;6283;51.330;12.374;2023-04-22T09:13:24;9.20;;;4.32;;
12437;SDS011;6283;51.330;12.374;2023-04-22T09:15:51;5.28;;;3.50;;
12437;SDS011;6283;51.330;12.374;2023-04-22T09:18:17;5.47;;;3.50;;
12437;SDS011;6283;51.330;12.374;2023-04-22T09:20:43;4.20;;;3.70;;
12437;SDS011;6283;51.330;12.374;2023-04-22T09:23:11;6.18;;;3.45;;
12437;SDS011;6283;51.330;12.374;2023-04-22T09:25:37;4.95;;;3.55;;
12437;SDS011;6283;51.330;12.374;2023-04-22T09:28:03;5.63;;;3.58;;
12437;SDS011;6283;51.330;12.374;2023-04-22T09:30:29;5.75;;;3.47;;
12437;SDS011;6283;51.330;12.374;2023-04-22T09:33:01;4.93;;;3.90;;
12437;SDS011;6283;51.330;12.374;2023-04-22T09:35:35;5.70;;;4.00;;
12437;SDS011;6283;51.330;12.374;2023-04-22T09:38:04;6.20;;;3.80;;
12437;SDS011;6283;51.330;12.374;2023-04-22T09:40:32;4.28;;;3.35;;
12437;SDS011;6283;51.330;12.374;2023-04-22T09:43:00;3.92;;;3.20;;
12437;SDS011;6283;51.330;12.374;2023-04-22T09:45:31;6.30;;;3.80;;
12437;SDS011;6283;51.330;12.374;2023-04-22T09:48:06;5.00;;;4.10;;
12437;SDS011;6283;51.330;12.374;2023-04-22T09:50:37;6.00;;;4.03;;
12437;SDS011;6283;51.330;12.374;2023-04-22T09:53:05;7.00;;;4.00;;
12437;SDS011;6283;51.330;12.374;2023-04-22T09:55:33;5.95;;;3.40;;
12437;SDS011;6283;51.330;12.374;2023-04-22T09:58:19;6.70;;;3.55;;
12437;SDS011;6283;51.330;12.374;2023-04-22T10:00:48;5.28;;;3.97;;
12437;SDS011;6283;51.330;12.374;2023-04-22T10:03:16;5.53;;;3.40;;
12437;SDS011;6283;51.330;12.374;2023-04-22T10:05:43;8.05;;;3.88;;
12437;SDS011;6283;51.330;12.374;2023-04-22T10:08:10;6.07;;;3.50;;
12437;SDS011;6283;51.330;12.374;2023-04-22T10:10:37;6.00;;;3.90;;
12437;SDS011;6283;51.330;12.374;2023-04-22T10:13:04;5.43;;;3.85;;
12437;SDS011;6283;51.330;12.374;2023-04-22T10:15:30;4.22;;;3.50;;
12437;SDS011;6283;51.330;12.374;2023-04-22T10:18:03;6.53;;;3.83;;
12437;SDS011;6283;51.330;12.374;2023-04-22T10:20:30;9.73;;;4.10;;
12437;SDS011;6283;51.330;12.374;2023-04-22T10:23:04;7.25;;;3.67;;
12437;SDS011;6283;51.330;12.374;2023-04-22T10:25:36;6.95;;;3.65;;
12437;SDS011;6283;51.330;12.374;2023-04-22T10:28:06;6.55;;;3.58;;
12437;SDS011;6283;51.330;12.374;2023-04-22T10:30:34;6.57;;;3.78;;
12437;SDS011;6283;51.330;12.374;2023-04-22T10:41:31;5.65;;;3.38;;
12437;SDS011;6283;51.330;12.374;2023-04-22T10:44:01;8.50;;;4.20;;
12437;SDS011;6283;51.330;12.374;2023-04-22T10:49:11;5.78;;;3.47;;
12437;SDS011;6283;51.330;12.374;2023-04-22T10:54:13;4.32;;;3.92;;
12437;SDS011;6283;51.330;12.374;2023-04-22T11:02:11;5.10;;;3.53;;
12437;SDS011;6283;51.330;12.374;2023-04-22T11:04:38;4.10;;;3.58;;
12437;SDS011;6283;51.330;12.374;2023-04-22T11:09:50;5.60;;;3.97;;
12437;SDS011;6283;51.330;12.374;2023-04-22T11:15:06;5.72;;;3.30;;
12437;SDS011;6283;51.330;12.374;2023-04-22T11:17:36;5.95;;;3.50;;
12437;SDS011;6283;51.330;12.374;2023-04-22T11:20:03;3.72;;;3.30;;
12437;SDS011;6283;51.330;12.374;2023-04-22T11:23:04;4.13;;;3.35;;
12437;SDS011;6283;51.330;12.374;2023-04-22T11:25:23;3.90;;;3.53;;
12437;SDS011;6283;51.330;12.374;2023-04-22T11:27:51;6.57;;;3.33;;
12437;SDS011;6283;51.330;12.374;2023-04-22T11:30:19;5.00;;;3.10;;
12437;SDS011;6283;51.330;12.374;2023-04-22T11:32:49;5.70;;;3.60;;
12437;SDS011;6283;51.330;12.374;2023-04-22T11:35:20;3.80;;;3.20;;
12437;SDS011;6283;51.330;12.374;2023-04-22T11:40:17;5.45;;;3.50;;
12437;SDS011;6283;51.330;12.374;2023-04-22T11:42:45;4.38;;;3.47;;
12437;SDS011;6283;51.330;12.374;2023-04-22T11:45:12;4.95;;;3.78;;
12437;SDS011;6283;51.330;12.374;2023-04-22T11:47:38;3.67;;;3.30;;
12437;SDS011;6283;51.330;12.374;2023-04-22T11:50:05;4.85;;;3.40;;
12437;SDS011;6283;51.330;12.374;2023-04-22T11:52:50;4.50;;;3.22;;
12437;SDS011;6283;51.330;12.374;2023-04-22T11:58:01;4.07;;;3.63;;
12437;SDS011;6283;51.330;12.374;2023-04-22T12:00:34;3.25;;;2.95;;
12437;SDS011;6283;51.330;12.374;2023-04-22T12:05:40;5.55;;;3.30;;
12437;SDS011;6283;51.330;12.374;2023-04-22T12:08:17;6.65;;;4.47;;
12437;SDS011;6283;51.330;12.374;2023-04-22T12:10:48;3.90;;;3.50;;
12437;SDS011;6283;51.330;12.374;2023-04-22T12:13:26;6.70;;;3.20;;
12437;SDS011;6283;51.330;12.374;2023-04-22T12:16:03;3.95;;;3.22;;
12437;SDS011;6283;51.330;12.374;2023-04-22T12:18:31;4.88;;;3.15;;
12437;SDS011;6283;51.330;12.374;2023-04-22T12:23:44;3.65;;;3.30;;
12437;SDS011;6283;51.330;12.374;2023-04-22T12:26:12;9.20;;;3.40;;
12437;SDS011;6283;51.330;12.374;2023-04-22T12:28:38;7.50;;;3.10;;
12437;SDS011;6283;51.330;12.374;2023-04-22T12:31:05;6.03;;;3.10;;
12437;SDS011;6283;51.330;12.374;2023-04-22T12:33:31;4.10;;;3.22;;
12437;SDS011;6283;51.330;12.374;2023-04-22T12:35:57;5.30;;;3.20;;
12437;SDS011;6283;51.330;12.374;2023-04-22T12:38:23;3.65;;;3.00;;
12437;SDS011;6283;51.330;12.374;2023-04-22T12:40:49;4.60;;;2.78;;
12437;SDS011;6283;51.330;12.374;2023-04-22T12:43:15;3.50;;;2.75;;
12437;SDS011;6283;51.330;12.374;2023-04-22T12:45:41;4.95;;;3.25;;
12437;SDS011;6283;51.330;12.374;2023-04-22T12:48:07;6.82;;;3.10;;
12437;SDS011;6283;51.330;12.374;2023-04-22T12:50:32;5.88;;;3.00;;
12437;SDS011;6283;51.330;12.374;2023-04-22T12:52:58;4.22;;;2.47;;
12437;SDS011;6283;51.330;12.374;2023-04-22T12:55:24;5.45;;;3.17;;
12437;SDS011;6283;51.330;12.374;2023-04-22T12:57:50;3.00;;;2.75;;
12437;SDS011;6283;51.330;12.374;2023-04-22T13:00:16;3.67;;;2.55;;
12437;SDS011;6283;51.330;12.374;2023-04-22T13:02:46;5.35;;;3.33;;
12437;SDS011;6283;51.330;12.374;2023-04-22T13:05:13;4.93;;;3.22;;
12437;SDS011;6283;51.330;12.374;2023-04-22T13:07:39;2.70;;;2.50;;
12437;SDS011;6283;51.330;12.374;2023-04-22T13:10:09;6.65;;;3.15;;
12437;SDS011;6283;51.330;12.374;2023-04-22T13:12:37;3.50;;;3.20;;
12437;SDS011;6283;51.330;12.374;2023-04-22T13:15:04;3.10;;;2.67;;
12437;SDS011;6283;51.330;12.374;2023-04-22T13:17:30;4.80;;;2.60;;
12437;SDS011;6283;51.330;12.374;2023-04-22T13:19:56;3.90;;;2.92;;
12437;SDS011;6283;51.330;12.374;2023-04-22T13:22:22;3.47;;;2.58;;
12437;SDS011;6283;51.330;12.374;2023-04-22T13:24:48;4.65;;;3.05;;
12437;SDS011;6283;51.330;12.374;2023-04-22T13:27:13;4.63;;;2.75;;
12437;SDS011;6283;51.330;12.374;2023-04-22T13:29:39;4.32;;;2.72;;
12437;SDS011;6283;51.330;12.374;2023-04-22T13:32:05;2.97;;;2.67;;
12437;SDS011;6283;51.330;12.374;2023-04-22T13:34:32;2.97;;;2.70;;
12437;SDS011;6283;51.330;12.374;2023-04-22T13:36:58;2.75;;;2.55;;
12437;SDS011;6283;51.330;12.374;2023-04-22T13:39:24;4.45;;;3.13;;
12437;SDS011;6283;51.330;12.374;2023-04-22T13:41:50;6.35;;;2.70;;
12437;SDS011;6283;51.330;12.374;2023-04-22T13:44:16;3.28;;;2.53;;
12437;SDS011;6283;51.330;12.374;2023-04-22T13:46:42;4.25;;;3.17;;
12437;SDS011;6283;51.330;12.374;2023-04-22T13:49:08;2.97;;;2.33;;
12437;SDS011;6283;51.330;12.374;2023-04-22T13:51:34;5.40;;;3.15;;
12437;SDS011;6283;51.330;12.374;2023-04-22T13:54:03;4.45;;;2.60;;
12437;SDS011;6283;51.330;12.374;2023-04-22T13:56:30;3.08;;;2.80;;
12437;SDS011;6283;51.330;12.374;2023-04-22T13:58:56;3.10;;;2.75;;
12437;SDS011;6283;51.330;12.374;2023-04-22T14:01:22;2.88;;;2.70;;
12437;SDS011;6283;51.330;12.374;2023-04-22T14:03:49;4.05;;;2.83;;
12437;SDS011;6283;51.330;12.374;2023-04-22T14:06:15;3.67;;;2.90;;
12437;SDS011;6283;51.330;12.374;2023-04-22T14:08:41;4.22;;;2.90;;
12437;SDS011;6283;51.330;12.374;2023-04-22T14:11:07;5.35;;;3.03;;
12437;SDS011;6283;51.330;12.374;2023-04-22T14:13:34;3.30;;;3.00;;
12437;SDS011;6283;51.330;12.374;2023-04-22T14:16:00;4.80;;;2.70;;
12437;SDS011;6283;51.330;12.374;2023-04-22T14:18:27;6.30;;;3.70;;
12437;SDS011;6283;51.330;12.374;2023-04-22T14:20:53;2.90;;;2.50;;
12437;SDS011;6283;51.330;12.374;2023-04-22T14:23:19;3.17;;;2.72;;
12437;SDS011;6283;51.330;12.374;2023-04-22T14:25:46;3.10;;;2.80;;
12437;SDS011;6283;51.330;12.374;2023-04-22T14:28:13;4.38;;;3.10;;
12437;SDS011;6283;51.330;12.374;2023-04-22T14:30:40;3.80;;;2.65;;
12437;SDS011;6283;51.330;12.374;2023-04-22T14:33:06;3.97;;;2.97;;
12437;SDS011;6283;51.330;12.374;2023-04-22T14:35:33;3.58;;;2.53;;
12437;SDS011;6283;51.330;12.374;2023-04-22T14:37:59;3.38;;;3.03;;
12437;SDS011;6283;51.330;12.374;2023-04-22T14:40:25;3.58;;;2.75;;
12437;SDS011;6283;51.330;12.374;2023-04-22T14:42:53;4.20;;;2.97;;
12437;SDS011;6283;51.330;12.374;2023-04-22T14:45:20;4.35;;;3.88;;
12437;SDS011;6283;51.330;12.374;2023-04-22T14:47:46;3.47;;;3.17;;
12437;SDS011;6283;51.330;12.374;2023-04-22T14:50:12;4.75;;;2.88;;
12437;SDS011;6283;51.330;12.374;2023-04-22T14:52:38;2.88;;;2.58;;
12437;SDS011;6283;51.330;12.374;2023-04-22T14:55:04;6.93;;;3.00;;
12437;SDS011;6283;51.330;12.374;2023-04-22T14:57:30;4.13;;;2.78;;
12437;SDS011;6283;51.330;12.374;2023-04-22T15:00:00;3.30;;;3.00;;
12437;SDS011;6283;51.330;12.374;2023-04-22T15:02:26;3.80;;;3.50;;
12437;SDS011;6283;51.330;12.374;2023-04-22T15:04:52;4.97;;;2.88;;
12437;SDS011;6283;51.330;12.374;2023-04-22T15:07:17;4.18;;;3.38;;
12437;SDS011;6283;51.330;12.374;2023-04-22T15:09:43;3.58;;;3.13;;
12437;SDS011;6283;51.330;12.374;2023-04-22T15:12:09;4.53;;;2.92;;
12437;SDS011;6283;51.330;12.374;2023-04-22T15:14:34;4.15;;;2.90;;
12437;SDS011;6283;51.330;12.374;2023-04-22T15:17:01;2.92;;;2.60;;